Time;durP1;ratioP1;P1;durP2;ratioP2;P2;SDS_P1;SDS_P2;PMS_P1;PMS_P2;Temp;Humidity;BMP_temperature;BMP_pressure;BME280_temperature;BME280_humidity;BME280_pressure;Samples;Min_cycle;Max_cycle;Signal;HPM_P1;HPM_P2
2021/05/21 00:00:42;;;;;;;7.43;2.97;;;13.40;65.40;;;;;;5058679;28;20225;-78
2021/05/21 00:03:08;;;;;;;4.80;2.88;;;13.40;65.30;;;;;;5059353;28;20048;-79
2021/05/21 00:05:34;;;;;;;5.18;2.80;;;13.50;65.50;;;;;;5073672;28;20112;-79
2021/05/21 00:08:00;;;;;;;7.22;2.78;;;13.50;65.50;;;;;;5095868;28;20131;-79
2021/05/21 00:10:26;;;;;;;4.60;2.83;;;13.50;65.50;;;;;;5079192;28;20067;-77
2021/05/21 00:12:53;;;;;;;5.50;3.08;;;13.50;65.40;;;;;;5078774;28;20123;-77
2021/05/21 00:15:19;;;;;;;5.10;2.78;;;13.50;65.40;;;;;;5061197;28;20079;-78
2021/05/21 00:17:45;;;;;;;6.05;3.80;;;13.50;65.40;;;;;;5075153;28;20405;-76
2021/05/21 00:20:12;;;;;;;4.68;2.58;;;13.50;65.30;;;;;;5059279;28;20100;-79
2021/05/21 00:22:37;;;;;;;4.95;3.10;;;13.50;65.30;;;;;;5075389;28;20037;-80
2021/05/21 00:25:06;;;;;;;7.68;2.80;;;13.50;65.20;;;;;;5058093;28;20051;-79
2021/05/21 00:27:31;;;;;;;7.60;3.10;;;13.50;65.30;;;;;;5057946;28;20539;-77
2021/05/21 00:29:57;;;;;;;6.18;2.50;;;13.50;65.20;;;;;;5056112;28;20063;-78
2021/05/21 00:32:23;;;;;;;5.25;2.70;;;13.60;65.40;;;;;;5056675;28;20051;-78
2021/05/21 00:34:49;;;;;;;7.07;2.85;;;13.60;65.50;;;;;;5073080;28;20044;-76
2021/05/21 00:37:17;;;;;;;5.05;2.55;;;13.60;65.40;;;;;;5093954;28;20140;-79
2021/05/21 00:39:43;;;;;;;7.00;3.17;;;13.60;65.40;;;;;;5076595;28;20054;-80
2021/05/21 00:42:08;;;;;;;5.88;2.88;;;13.60;65.40;;;;;;5090667;28;20047;-78
2021/05/21 00:44:34;;;;;;;4.90;3.13;;;13.60;65.30;;;;;;5098752;28;20044;-78
2021/05/21 00:47:00;;;;;;;6.95;2.67;;;13.60;65.40;;;;;;5099007;28;20610;-79
2021/05/21 00:49:26;;;;;;;5.68;2.67;;;13.60;65.40;;;;;;5048842;28;20092;-79
2021/05/21 00:51:52;;;;;;;4.07;2.78;;;13.60;65.50;;;;;;5065314;28;20073;-77
2021/05/21 00:54:18;;;;;;;6.50;2.78;;;13.60;65.50;;;;;;5065632;28;20044;-79
2021/05/21 00:56:46;;;;;;;6.80;2.55;;;13.60;65.50;;;;;;5083048;28;20496;-79
2021/05/21 00:59:12;;;;;;;4.95;2.65;;;13.60;65.60;;;;;;5082738;28;20095;-77
2021/05/21 01:01:40;;;;;;;6.15;2.70;;;13.60;65.60;;;;;;5082699;28;20400;-77
2021/05/21 01:04:06;;;;;;;4.93;2.75;;;13.60;65.60;;;;;;5081527;28;20036;-78
2021/05/21 01:06:32;;;;;;;7.50;2.63;;;13.60;65.60;;;;;;5115445;28;20063;-79
2021/05/21 01:08:58;;;;;;;4.60;2.40;;;13.60;65.60;;;;;;5081782;28;20083;-79
2021/05/21 01:11:25;;;;;;;6.72;3.08;;;13.60;65.70;;;;;;5082150;28;20056;-79
2021/05/21 01:13:51;;;;;;;5.25;2.47;;;13.60;65.70;;;;;;5081799;28;20419;-79
2021/05/21 01:16:17;;;;;;;6.47;2.70;;;13.60;65.80;;;;;;5082875;28;20051;-78
2021/05/21 01:18:42;;;;;;;6.78;2.70;;;13.60;65.70;;;;;;5098627;28;20149;-79
2021/05/21 01:21:09;;;;;;;5.82;2.88;;;13.70;65.90;;;;;;5048335;28;20044;-79
2021/05/21 01:23:35;;;;;;;6.45;3.30;;;13.70;66.00;;;;;;5081562;28;20078;-80
2021/05/21 01:26:00;;;;;;;4.95;2.63;;;13.70;65.90;;;;;;5114625;28;20477;-78
2021/05/21 01:28:26;;;;;;;5.30;2.60;;;13.70;66.00;;;;;;5098840;28;20044;-81
2021/05/21 01:30:54;;;;;;;4.45;2.45;;;13.70;65.90;;;;;;5097778;28;20097;-81
2021/05/21 01:33:20;;;;;;;6.05;3.15;;;13.70;66.00;;;;;;5081621;28;20044;-78
2021/05/21 01:35:46;;;;;;;6.53;2.47;;;13.70;66.00;;;;;;5080858;28;20085;-76
2021/05/21 01:38:14;;;;;;;7.15;3.05;;;13.70;66.00;;;;;;5097422;28;20032;-76
2021/05/21 01:40:43;;;;;;;4.85;2.90;;;13.70;66.20;;;;;;5082076;28;20044;-79
2021/05/21 01:43:12;;;;;;;5.90;2.53;;;13.70;66.20;;;;;;5081286;28;20044;-80
2021/05/21 01:45:41;;;;;;;5.95;2.63;;;13.70;66.20;;;;;;5080903;28;20040;-79
2021/05/21 01:48:08;;;;;;;7.18;2.88;;;13.70;66.30;;;;;;5078933;28;20051;-77
2021/05/21 01:50:34;;;;;;;6.10;2.53;;;13.70;66.30;;;;;;5080591;28;20054;-79
2021/05/21 01:52:59;;;;;;;12.20;2.75;;;13.70;66.40;;;;;;5080084;28;20044;-78
2021/05/21 01:55:25;;;;;;;8.30;2.80;;;13.70;66.40;;;;;;5080847;28;20114;-78
2021/05/21 01:57:54;;;;;;;6.53;2.83;;;13.70;66.60;;;;;;5080523;28;20100;-80
2021/05/21 02:00:20;;;;;;;5.35;2.40;;;13.70;66.70;;;;;;5096999;28;20044;-78
2021/05/21 02:02:46;;;;;;;5.70;2.42;;;13.70;67.10;;;;;;5080185;28;20150;-79
2021/05/21 02:05:12;;;;;;;5.18;2.78;;;13.70;67.30;;;;;;5095307;28;20048;-77
2021/05/21 02:07:38;;;;;;;5.60;2.78;;;13.70;67.50;;;;;;5096467;28;20043;-80
2021/05/21 02:10:08;;;;;;;6.20;3.35;;;13.60;67.60;;;;;;5078993;28;20127;-79
2021/05/21 02:12:35;;;;;;;8.43;3.95;;;13.60;67.70;;;;;;5080006;28;20056;-77
2021/05/21 02:15:06;;;;;;;7.38;2.97;;;13.60;67.90;;;;;;5079746;28;20135;-81
2021/05/21 02:17:32;;;;;;;10.43;3.22;;;13.60;68.10;;;;;;5096669;28;20097;-76
2021/05/21 02:20:01;;;;;;;4.63;2.88;;;13.60;68.30;;;;;;5113696;28;20044;-79
2021/05/21 02:22:28;;;;;;;8.45;2.63;;;13.50;68.30;;;;;;5081110;28;20075;-78
2021/05/21 02:24:58;;;;;;;4.72;2.72;;;13.50;68.40;;;;;;5080094;28;20047;-79
2021/05/21 02:27:24;;;;;;;5.47;2.63;;;13.50;68.60;;;;;;5079987;28;20095;-76
2021/05/21 02:29:50;;;;;;;8.40;3.35;;;13.50;68.70;;;;;;5080104;28;20163;-78
2021/05/21 02:32:16;;;;;;;6.07;3.63;;;13.50;68.90;;;;;;5074165;28;20044;-79
2021/05/21 02:34:42;;;;;;;6.78;3.28;;;13.50;69.30;;;;;;5096976;28;20040;-79
2021/05/21 02:37:08;;;;;;;8.32;3.13;;;13.50;69.50;;;;;;5066688;28;20051;-77
2021/05/21 02:39:36;;;;;;;10.57;3.97;;;13.50;69.90;;;;;;5059222;28;20037;-79
2021/05/21 02:42:05;;;;;;;11.02;3.40;;;13.50;70.00;;;;;;5059326;28;20066;-80
2021/05/21 02:44:33;;;;;;;11.40;3.40;;;13.50;70.20;;;;;;5059854;28;20036;-78
2021/05/21 02:46:59;;;;;;;11.50;3.50;;;13.50;70.20;;;;;;5075764;28;20044;-79
2021/05/21 02:49:25;;;;;;;19.50;4.88;;;13.50;70.80;;;;;;5075681;28;20101;-78
2021/05/21 02:51:52;;;;;;;13.52;4.07;;;13.40;70.10;;;;;;5059527;28;20047;-79
2021/05/21 02:54:18;;;;;;;18.52;4.47;;;13.40;70.10;;;;;;5058158;28;20391;-78
2021/05/21 02:56:44;;;;;;;16.92;4.30;;;13.40;70.20;;;;;;5057916;28;20409;-78
2021/05/21 02:59:10;;;;;;;22.58;5.20;;;13.40;70.00;;;;;;5057367;28;20041;-80
2021/05/21 03:01:36;;;;;;;18.20;4.18;;;13.40;70.00;;;;;;5074683;28;20445;-78
2021/05/21 03:04:02;;;;;;;17.40;4.82;;;13.30;70.00;;;;;;5075472;28;20052;-78
2021/05/21 03:06:28;;;;;;;19.17;4.15;;;13.30;69.90;;;;;;5092382;28;20064;-78
2021/05/21 03:08:53;;;;;;;26.38;4.85;;;13.30;69.70;;;;;;5076348;28;20036;-78
2021/05/21 03:11:20;;;;;;;22.08;3.55;;;13.30;69.70;;;;;;5059658;28;20036;-79
2021/05/21 03:13:46;;;;;;;23.98;5.28;;;13.30;69.80;;;;;;5060142;28;20051;-76
2021/05/21 03:16:11;;;;;;;17.55;4.78;;;13.20;69.80;;;;;;5076989;28;20048;-79
2021/05/21 03:18:40;;;;;;;25.00;4.18;;;13.20;70.00;;;;;;5060199;28;20045;-77
2021/05/21 03:21:06;;;;;;;27.27;4.80;;;13.20;70.00;;;;;;5076867;28;20075;-80
2021/05/21 03:23:31;;;;;;;17.30;5.30;;;13.20;70.70;;;;;;5059205;28;20040;-78
2021/05/21 03:25:57;;;;;;;21.33;4.45;;;13.10;69.90;;;;;;5060117;28;20143;-78
2021/05/21 03:28:23;;;;;;;14.85;3.33;;;13.10;69.80;;;;;;5060594;28;20062;-79
2021/05/21 03:30:49;;;;;;;18.45;4.50;;;13.10;69.70;;;;;;5076959;28;20067;-77
2021/05/21 03:33:15;;;;;;;18.27;4.55;;;13.10;69.70;;;;;;5076521;28;20049;-79
2021/05/21 03:35:43;;;;;;;17.27;4.03;;;13.10;69.70;;;;;;5059885;28;20090;-80
2021/05/21 03:38:09;;;;;;;21.08;5.50;;;13.10;69.70;;;;;;5077034;28;20090;-79
2021/05/21 03:40:38;;;;;;;27.20;5.18;;;13.00;69.60;;;;;;5058578;28;20045;-79
2021/05/21 03:43:04;;;;;;;24.85;5.13;;;13.00;69.70;;;;;;5074878;28;20075;-77
2021/05/21 03:45:33;;;;;;;21.67;4.93;;;13.00;70.00;;;;;;5074612;28;20047;-80
2021/05/21 03:47:59;;;;;;;26.58;4.38;;;13.00;70.20;;;;;;5075642;28;20066;-77
2021/05/21 03:50:25;;;;;;;27.73;5.13;;;12.90;70.30;;;;;;5074825;28;20044;-79
2021/05/21 03:52:51;;;;;;;17.80;4.40;;;12.90;70.50;;;;;;5059023;28;20040;-79
2021/05/21 03:55:18;;;;;;;20.33;5.35;;;12.90;70.60;;;;;;5075336;28;20060;-79
2021/05/21 03:57:44;;;;;;;20.65;4.43;;;12.90;70.80;;;;;;5059401;28;20037;-81
2021/05/21 04:00:12;;;;;;;19.90;4.93;;;12.80;70.80;;;;;;5059188;28;20051;-77
2021/05/21 04:02:37;;;;;;;20.00;4.88;;;12.80;71.00;;;;;;5057506;28;20090;-78
2021/05/21 04:05:04;;;;;;;20.50;4.55;;;12.80;71.20;;;;;;5056792;28;20438;-79
2021/05/21 04:07:29;;;;;;;26.17;5.20;;;12.80;71.40;;;;;;5056001;28;20040;-80
2021/05/21 04:09:55;;;;;;;19.08;4.78;;;12.70;71.50;;;;;;5059157;28;20041;-76
2021/05/21 04:12:24;;;;;;;22.48;5.07;;;12.70;71.90;;;;;;5077149;28;20040;-77
2021/05/21 04:14:51;;;;;;;20.42;5.38;;;12.70;72.20;;;;;;5079626;28;20052;-79
2021/05/21 04:17:19;;;;;;;24.50;5.60;;;12.70;72.20;;;;;;5063391;28;20049;-78
2021/05/21 04:19:45;;;;;;;22.88;5.07;;;12.70;72.40;;;;;;5063235;28;20044;-79
2021/05/21 04:22:12;;;;;;;24.33;4.28;;;12.70;72.50;;;;;;5062621;28;20040;-79
2021/05/21 04:24:37;;;;;;;19.77;5.35;;;12.70;72.60;;;;;;5061035;28;20087;-80
2021/05/21 04:27:06;;;;;;;24.15;5.40;;;12.60;72.60;;;;;;5062510;28;20414;-80
2021/05/21 04:29:32;;;;;;;19.25;5.22;;;12.60;72.80;;;;;;5063089;28;20052;-80
2021/05/21 04:31:58;;;;;;;21.45;4.65;;;12.60;72.90;;;;;;5063033;28;20132;-79
2021/05/21 04:34:25;;;;;;;21.38;4.88;;;12.60;73.00;;;;;;5078633;28;20456;-79
2021/05/21 04:36:50;;;;;;;22.27;5.00;;;12.60;73.00;;;;;;5062835;28;20048;-80
2021/05/21 04:39:19;;;;;;;18.25;4.18;;;12.50;73.00;;;;;;5062944;28;20044;-78
2021/05/21 04:41:44;;;;;;;18.08;4.82;;;12.50;73.20;;;;;;5062896;28;20129;-79
2021/05/21 04:44:11;;;;;;;20.80;5.43;;;12.50;73.30;;;;;;5062575;28;20492;-80
2021/05/21 04:46:38;;;;;;;21.73;5.53;;;12.50;73.50;;;;;;5062525;28;20181;-79
2021/05/21 04:49:04;;;;;;;28.20;5.15;;;12.50;73.70;;;;;;5063673;28;20032;-77
2021/05/21 04:51:30;;;;;;;23.33;4.22;;;12.40;73.80;;;;;;5061683;28;20397;-79
2021/05/21 04:54:01;;;;;;;22.30;5.30;;;12.40;73.90;;;;;;5063111;28;20124;-78
2021/05/21 04:56:29;;;;;;;17.92;4.47;;;12.40;74.10;;;;;;5060141;28;20064;-78
2021/05/21 04:58:55;;;;;;;21.25;5.25;;;12.40;74.10;;;;;;5060063;28;20041;-78
2021/05/21 05:01:21;;;;;;;20.98;5.57;;;12.40;74.00;;;;;;5076580;28;20045;-75
2021/05/21 05:03:49;;;;;;;17.65;4.88;;;12.40;74.30;;;;;;5091400;28;20075;-77
2021/05/21 05:06:15;;;;;;;21.70;5.78;;;12.30;74.20;;;;;;5076718;28;20052;-78
2021/05/21 05:08:41;;;;;;;28.83;4.75;;;12.30;74.30;;;;;;5091561;28;20040;-79
2021/05/21 05:11:09;;;;;;;20.55;4.35;;;12.30;74.60;;;;;;5079353;28;20036;-80
2021/05/21 05:13:35;;;;;;;21.88;6.03;;;12.30;74.60;;;;;;5109996;28;20070;-78
2021/05/21 05:16:01;;;;;;;25.98;5.30;;;12.30;74.60;;;;;;5080669;28;20044;-80
2021/05/21 05:18:28;;;;;;;26.33;6.05;;;12.30;74.60;;;;;;5112994;28;20496;-82
2021/05/21 05:20:54;;;;;;;14.38;4.43;;;12.30;74.80;;;;;;5076836;28;20067;-81
2021/05/21 05:23:28;;;;;;;22.90;4.95;;;12.30;74.70;;;;;;5081119;28;20059;-78
2021/05/21 05:25:54;;;;;;;23.25;5.30;;;12.30;74.90;;;;;;5061428;28;20036;-79
2021/05/21 05:28:20;;;;;;;21.15;4.20;;;12.30;74.90;;;;;;5098094;28;20036;-75
2021/05/21 05:30:47;;;;;;;24.05;4.90;;;12.30;74.70;;;;;;5075324;28;20522;-78
2021/05/21 05:33:13;;;;;;;26.10;4.90;;;12.30;74.90;;;;;;5076668;28;20048;-76
2021/05/21 05:35:41;;;;;;;21.88;4.72;;;12.30;74.80;;;;;;5094882;28;20349;-78
2021/05/21 05:38:07;;;;;;;27.15;5.70;;;12.30;74.60;;;;;;5081681;28;20058;-77
2021/05/21 05:40:35;;;;;;;22.88;4.75;;;12.30;74.70;;;;;;5074131;28;20131;-80
2021/05/21 05:43:02;;;;;;;26.20;5.35;;;12.40;74.80;;;;;;5090043;28;20126;-76
2021/05/21 05:45:28;;;;;;;20.58;6.38;;;12.40;74.70;;;;;;5077798;28;20036;-76
2021/05/21 05:47:54;;;;;;;24.27;4.90;;;12.40;74.70;;;;;;5071151;28;20468;-82
2021/05/21 05:50:20;;;;;;;21.67;5.25;;;12.40;74.70;;;;;;5096038;28;20066;-79
2021/05/21 05:52:51;;;;;;;25.05;5.68;;;12.40;74.60;;;;;;5076461;28;20072;-82
2021/05/21 05:55:22;;;;;;;20.90;5.30;;;12.40;74.60;;;;;;5048010;28;20059;-85
2021/05/21 05:57:48;;;;;;;32.67;6.45;;;12.40;74.40;;;;;;5064132;28;20472;-79
2021/05/21 06:00:14;;;;;;;23.17;6.05;;;12.40;74.50;;;;;;5093080;28;20118;-85
2021/05/21 06:02:40;;;;;;;23.00;5.25;;;12.40;74.50;;;;;;5091193;28;20040;-78
2021/05/21 06:05:07;;;;;;;20.45;4.82;;;12.40;74.40;;;;;;5068675;28;20060;-81
2021/05/21 06:07:32;;;;;;;22.83;4.75;;;12.50;75.20;;;;;;5096175;28;20456;-75
2021/05/21 06:09:58;;;;;;;29.38;5.20;;;12.70;74.70;;;;;;5087713;28;20033;-74
2021/05/21 06:12:24;;;;;;;23.38;6.13;;;12.70;74.20;;;;;;5077684;28;20447;-77
2021/05/21 06:14:50;;;;;;;24.15;5.50;;;12.60;73.90;;;;;;5063337;28;20040;-73
2021/05/21 06:17:18;;;;;;;19.00;4.32;;;12.70;73.70;;;;;;5093022;28;20143;-73
2021/05/21 06:19:45;;;;;;;21.38;5.65;;;12.70;73.60;;;;;;5078111;28;20048;-81
2021/05/21 06:22:13;;;;;;;20.30;6.22;;;12.70;73.50;;;;;;5085770;28;20436;-74
2021/05/21 06:24:42;;;;;;;23.23;5.90;;;12.60;73.30;;;;;;5071964;28;20439;-76
2021/05/21 06:27:24;;;;;;;23.23;5.10;;;12.60;73.10;;;;;;5073809;28;20504;-75
2021/05/21 06:29:50;;;;;;;21.07;4.40;;;12.60;72.80;;;;;;5090920;28;20043;-78
2021/05/21 06:32:16;;;;;;;18.70;4.38;;;12.60;72.70;;;;;;5073893;28;20040;-76
2021/05/21 06:34:42;;;;;;;19.58;4.95;;;12.70;72.60;;;;;;5089821;28;20051;-78
2021/05/21 06:37:08;;;;;;;23.42;6.13;;;12.70;72.60;;;;;;5073797;28;20070;-75
2021/05/21 06:39:34;;;;;;;27.15;5.93;;;12.70;72.40;;;;;;5073979;28;20492;-74
2021/05/21 06:42:02;;;;;;;27.08;5.80;;;12.70;72.40;;;;;;5090190;28;20121;-76
2021/05/21 06:44:36;;;;;;;27.65;6.40;;;12.70;72.30;;;;;;5060076;28;20072;-75
2021/05/21 06:47:04;;;;;;;23.63;5.25;;;12.70;72.20;;;;;;5090314;28;20072;-75
2021/05/21 06:49:34;;;;;;;26.60;6.43;;;12.80;72.20;;;;;;5074492;28;20079;-76
2021/05/21 06:51:59;;;;;;;27.80;5.60;;;12.80;72.80;;;;;;5090101;28;20048;-75
2021/05/21 06:54:25;;;;;;;21.20;6.25;;;12.80;71.90;;;;;;5090356;28;20070;-75
2021/05/21 06:56:51;;;;;;;19.85;5.13;;;12.90;71.90;;;;;;5091162;28;20044;-73
2021/05/21 06:59:17;;;;;;;22.33;5.28;;;12.90;71.70;;;;;;5090655;28;20036;-75
2021/05/21 07:01:45;;;;;;;22.10;5.57;;;12.90;71.50;;;;;;5090627;28;20131;-75
2021/05/21 07:04:11;;;;;;;22.42;5.60;;;12.90;71.40;;;;;;5090490;28;20047;-75
2021/05/21 07:06:37;;;;;;;22.70;5.07;;;12.90;71.30;;;;;;5073548;28;20051;-75
2021/05/21 07:09:03;;;;;;;17.67;5.38;;;13.00;71.10;;;;;;5072861;28;20050;-73
2021/05/21 07:11:29;;;;;;;20.33;5.50;;;13.00;70.90;;;;;;5073853;28;20126;-73
2021/05/21 07:13:56;;;;;;;21.83;5.75;;;13.10;70.80;;;;;;5072459;28;20132;-76
2021/05/21 07:16:23;;;;;;;24.38;5.85;;;13.10;70.60;;;;;;5090549;28;20429;-75
2021/05/21 07:18:49;;;;;;;19.45;5.45;;;13.10;70.50;;;;;;5089917;28;20046;-75
2021/05/21 07:21:15;;;;;;;21.27;5.05;;;13.20;70.40;;;;;;5090033;28;20048;-75
2021/05/21 07:23:41;;;;;;;31.55;7.18;;;13.20;70.10;;;;;;5073678;28;20119;-75
2021/05/21 07:26:06;;;;;;;25.10;5.28;;;13.30;69.80;;;;;;5090642;28;20047;-75
2021/05/21 07:28:32;;;;;;;24.13;5.80;;;13.30;69.70;;;;;;5073731;28;20052;-74
2021/05/21 07:30:58;;;;;;;27.27;6.15;;;13.40;69.70;;;;;;5089770;28;20184;-74
2021/05/21 07:33:24;;;;;;;25.10;5.88;;;13.40;69.50;;;;;;5073694;28;20055;-75
2021/05/21 07:35:50;;;;;;;20.67;5.18;;;13.50;69.10;;;;;;5072908;28;20060;-77
2021/05/21 07:38:16;;;;;;;20.27;4.95;;;13.60;68.60;;;;;;5090847;28;20442;-74
2021/05/21 07:40:41;;;;;;;21.25;6.32;;;13.70;68.40;;;;;;5089782;28;20044;-74
2021/05/21 07:43:09;;;;;;;23.70;4.97;;;13.80;68.20;;;;;;5072421;28;20408;-74
2021/05/21 07:45:35;;;;;;;19.00;4.68;;;13.80;67.80;;;;;;5089524;28;20111;-75
2021/05/21 07:48:01;;;;;;;19.45;5.13;;;13.90;67.30;;;;;;5105933;28;20142;-74
2021/05/21 07:50:27;;;;;;;20.42;5.28;;;13.90;67.00;;;;;;5089739;28;20054;-74
2021/05/21 07:52:55;;;;;;;19.52;5.45;;;13.90;66.30;;;;;;5089765;28;20101;-78
2021/05/21 07:55:23;;;;;;;18.67;4.45;;;13.90;65.80;;;;;;5089523;28;20071;-75
2021/05/21 07:57:49;;;;;;;18.05;4.43;;;13.90;66.20;;;;;;5090116;28;20048;-74
2021/05/21 08:00:15;;;;;;;16.65;4.78;;;13.90;64.70;;;;;;5090499;28;20726;-75
2021/05/21 08:02:42;;;;;;;15.90;4.05;;;13.90;64.40;;;;;;5089761;28;20063;-75
2021/05/21 08:05:08;;;;;;;17.45;4.80;;;13.90;64.00;;;;;;5087110;28;20491;-72
2021/05/21 08:07:34;;;;;;;14.25;3.80;;;14.00;64.00;;;;;;5053214;28;20477;-76
2021/05/21 08:10:02;;;;;;;22.98;4.25;;;14.00;63.60;;;;;;5052532;28;20115;-75
2021/05/21 08:12:28;;;;;;;12.73;4.00;;;14.10;63.40;;;;;;5069960;28;20044;-74
2021/05/21 08:14:56;;;;;;;14.32;3.35;;;14.10;63.10;;;;;;5036935;28;20049;-75
2021/05/21 08:17:22;;;;;;;13.13;3.63;;;14.10;62.80;;;;;;5052601;28;20051;-73
2021/05/21 08:19:59;;;;;;;15.88;3.75;;;14.20;62.70;;;;;;5086537;28;20048;-74
2021/05/21 08:22:29;;;;;;;14.98;3.80;;;14.20;62.30;;;;;;5056118;28;20400;-74
2021/05/21 08:24:54;;;;;;;15.65;4.22;;;14.30;61.90;;;;;;5069894;28;20047;-74
2021/05/21 08:27:20;;;;;;;17.70;3.85;;;14.40;61.80;;;;;;5069052;28;20290;-75
2021/05/21 08:29:46;;;;;;;16.00;3.10;;;14.40;61.10;;;;;;5036304;28;20118;-75
2021/05/21 08:32:12;;;;;;;17.13;3.75;;;14.50;61.00;;;;;;5068913;28;20105;-74
2021/05/21 08:34:38;;;;;;;18.55;4.60;;;14.60;60.70;;;;;;5052736;28;20045;-74
2021/05/21 08:37:04;;;;;;;18.25;3.72;;;14.70;60.50;;;;;;5068566;28;20041;-77
2021/05/21 08:39:29;;;;;;;22.20;4.50;;;14.70;60.20;;;;;;5056002;28;20473;-75
2021/05/21 08:41:55;;;;;;;16.77;4.38;;;14.80;59.80;;;;;;5056006;28;20135;-74
2021/05/21 08:44:21;;;;;;;15.32;4.25;;;14.90;59.70;;;;;;5071914;28;20603;-74
2021/05/21 08:46:47;;;;;;;20.58;4.85;;;15.00;59.30;;;;;;5072469;28;20041;-75
2021/05/21 08:49:13;;;;;;;15.90;3.60;;;15.00;58.90;;;;;;5058133;28;20523;-74
2021/05/21 08:51:44;;;;;;;18.45;4.25;;;15.00;58.70;;;;;;5056453;28;20084;-76
2021/05/21 08:54:11;;;;;;;20.50;4.45;;;15.10;58.30;;;;;;5071069;28;20090;-75
2021/05/21 08:56:37;;;;;;;21.95;4.03;;;15.20;58.20;;;;;;5055340;28;20098;-74
2021/05/21 08:59:03;;;;;;;16.35;3.90;;;15.30;58.20;;;;;;5077125;28;20140;-74
2021/05/21 09:01:29;;;;;;;17.05;3.10;;;15.30;58.10;;;;;;5059067;28;20059;-74
2021/05/21 09:04:00;;;;;;;16.40;4.32;;;15.40;58.00;;;;;;5059959;28;20052;-73
2021/05/21 09:06:28;;;;;;;17.48;3.92;;;15.50;57.70;;;;;;5086350;28;20063;-75
2021/05/21 09:08:58;;;;;;;16.10;4.05;;;15.50;57.50;;;;;;5095749;28;20493;-75
2021/05/21 09:11:26;;;;;;;16.67;3.33;;;15.60;57.50;;;;;;5062588;28;20460;-73
2021/05/21 09:14:20;;;;;;;15.07;3.75;;;15.70;57.60;;;;;;5096444;28;20393;-74
2021/05/21 09:16:47;;;;;;;12.55;3.35;;;15.80;57.40;;;;;;5082270;28;20088;-74
2021/05/21 09:19:17;;;;;;;14.02;3.20;;;15.80;57.10;;;;;;5079616;28;20048;-76
2021/05/21 09:22:08;;;;;;;17.05;4.72;;;15.90;56.50;;;;;;5079819;28;20040;-74
2021/05/21 09:24:35;;;;;;;14.50;3.60;;;15.90;55.40;;;;;;5095577;28;20402;-74
2021/05/21 09:27:02;;;;;;;11.90;3.17;;;15.90;56.10;;;;;;5060606;28;20051;-74
2021/05/21 09:29:47;;;;;;;12.90;4.00;;;15.90;55.90;;;;;;5093795;28;20089;-73
2021/05/21 09:32:16;;;;;;;16.45;4.35;;;16.00;55.70;;;;;;5093751;28;20043;-77
2021/05/21 09:34:46;;;;;;;15.38;4.13;;;16.10;55.70;;;;;;5096482;28;20052;-75
2021/05/21 09:37:23;;;;;;;15.07;4.00;;;16.10;55.80;;;;;;5079896;28;20050;-76
2021/05/21 09:40:27;;;;;;;13.75;4.03;;;16.20;55.80;;;;;;5095161;28;20039;-74
2021/05/21 09:42:53;;;;;;;11.70;3.65;;;16.30;55.50;;;;;;5067504;28;20529;-74
2021/05/21 09:45:25;;;;;;;13.10;3.22;;;16.30;55.80;;;;;;5094628;28;20040;-73
2021/05/21 09:47:55;;;;;;;14.77;3.77;;;16.30;55.40;;;;;;5079605;28;20052;-75
2021/05/21 09:50:43;;;;;;;17.55;4.00;;;16.30;55.60;;;;;;5077801;28;20129;-73
2021/05/21 09:53:24;;;;;;;13.63;3.33;;;16.20;56.90;;;;;;5093916;28;20040;-74
2021/05/21 09:55:54;;;;;;;18.23;4.47;;;16.00;58.60;;;;;;5093614;28;20437;-75
2021/05/21 09:58:23;;;;;;;14.45;3.38;;;15.90;59.50;;;;;;5075747;28;20036;-74
2021/05/21 10:01:12;;;;;;;15.57;4.20;;;16.00;60.00;;;;;;5094252;28;20380;-75
2021/05/21 10:03:39;;;;;;;12.68;4.85;;;16.00;60.50;;;;;;5060429;28;20051;-74
2021/05/21 10:06:05;;;;;;;14.70;4.00;;;16.00;60.20;;;;;;5094065;28;20055;-74
2021/05/21 10:08:33;;;;;;;15.18;3.92;;;16.00;60.30;;;;;;5059494;28;20408;-73
2021/05/21 10:10:59;;;;;;;12.65;3.20;;;16.00;60.10;;;;;;5076752;28;20040;-73
2021/05/21 10:13:25;;;;;;;14.77;4.03;;;16.00;60.10;;;;;;5077156;28;20531;-74
2021/05/21 10:15:52;;;;;;;17.20;3.85;;;15.90;60.00;;;;;;5059914;28;20123;-74
2021/05/21 10:18:18;;;;;;;26.05;5.50;;;15.90;60.00;;;;;;5092365;28;20040;-77
2021/05/21 10:20:45;;;;;;;17.63;4.80;;;15.80;60.40;;;;;;5076377;28;20059;-75
2021/05/21 10:23:39;;;;;;;12.77;4.22;;;15.70;61.60;;;;;;5075793;28;20040;-74
2021/05/21 10:26:13;;;;;;;14.98;4.00;;;15.60;62.70;;;;;;5075418;28;20052;-74
2021/05/21 10:28:40;;;;;;;18.38;5.35;;;15.50;63.10;;;;;;5075638;28;20407;-73
2021/05/21 10:31:08;;;;;;;16.13;4.05;;;15.50;63.60;;;;;;5075438;28;20481;-74
2021/05/21 10:33:36;;;;;;;11.20;4.00;;;15.50;64.00;;;;;;5074779;28;20493;-73
2021/05/21 10:36:24;;;;;;;16.98;4.85;;;15.50;64.10;;;;;;5092714;28;20437;-74
2021/05/21 10:39:12;;;;;;;14.15;4.05;;;15.50;64.30;;;;;;5092718;28;20047;-74
2021/05/21 10:41:38;;;;;;;13.07;3.53;;;15.50;63.80;;;;;;5093025;28;20480;-74
2021/05/21 10:44:28;;;;;;;12.05;4.38;;;15.50;63.40;;;;;;5076666;28;20048;-74
2021/05/21 10:47:12;;;;;;;16.60;4.25;;;15.50;63.00;;;;;;5075643;28;20051;-75
2021/05/21 10:49:38;;;;;;;13.77;3.97;;;15.50;63.20;;;;;;5093046;28;20072;-74
2021/05/21 10:52:05;;;;;;;13.93;3.70;;;15.60;63.10;;;;;;5092400;28;20112;-72
2021/05/21 10:54:35;;;;;;;14.05;4.75;;;15.60;63.10;;;;;;5092177;28;20050;-74
2021/05/21 10:57:30;;;;;;;16.02;4.00;;;15.50;62.80;;;;;;5076918;28;20032;-73
2021/05/21 10:59:57;;;;;;;13.95;4.32;;;15.60;63.20;;;;;;5091449;28;20052;-77
2021/05/21 11:02:43;;;;;;;10.88;3.30;;;15.70;62.70;;;;;;5069453;28;20139;-73
2021/05/21 11:05:29;;;;;;;10.00;3.40;;;15.90;63.80;;;;;;5073204;28;20052;-78
2021/05/21 11:07:57;;;;;;;12.98;3.85;;;16.20;63.40;;;;;;5076490;28;20037;-75
2021/05/21 11:10:26;;;;;;;10.10;4.28;;;16.50;62.50;;;;;;5059273;28;20139;-78
2021/05/21 11:12:55;;;;;;;15.68;4.82;;;16.70;61.50;;;;;;5060639;28;20068;-80
2021/05/21 11:15:37;;;;;;;13.15;4.35;;;16.80;61.00;;;;;;5071205;28;20174;-77
2021/05/21 11:18:21;;;;;;;13.88;4.88;;;16.90;60.70;;;;;;5035572;28;20056;-82
2021/05/21 11:21:08;;;;;;;15.23;4.75;;;17.00;60.60;;;;;;5048093;28;20044;-82
2021/05/21 11:23:41;;;;;;;12.90;4.45;;;17.00;59.80;;;;;;5029513;28;20124;-77
2021/05/21 11:28:48;;;;;;;13.50;4.47;;;16.90;59.10;;;;;;5072137;28;20044;-78
2021/05/21 11:31:21;;;;;;;11.40;3.55;;;16.90;58.90;;;;;;5038504;28;20036;-79
2021/05/21 11:33:48;;;;;;;10.73;4.30;;;17.00;58.90;;;;;;5058684;28;20075;-77
2021/05/21 11:36:14;;;;;;;12.35;4.18;;;17.00;58.80;;;;;;5058904;28;20040;-77
2021/05/21 11:38:40;;;;;;;12.23;3.22;;;17.30;58.90;;;;;;5051538;28;20093;-78
2021/05/21 11:41:06;;;;;;;10.05;4.25;;;17.50;58.90;;;;;;5055177;28;20044;-77
2021/05/21 11:43:37;;;;;;;10.25;3.75;;;17.70;57.90;;;;;;5069270;28;20044;-81
2021/05/21 11:46:10;;;;;;;14.60;3.80;;;17.70;57.40;;;;;;5053705;28;20040;-80
2021/05/21 11:48:39;;;;;;;12.02;4.32;;;17.70;56.70;;;;;;5043725;28;20111;-79
2021/05/21 11:51:16;;;;;;;14.70;4.47;;;17.70;56.40;;;;;;5040474;28;20098;-79
2021/05/21 11:54:04;;;;;;;14.23;4.60;;;17.70;56.30;;;;;;5069091;28;20477;-81
2021/05/21 11:56:37;;;;;;;13.48;4.03;;;17.60;55.60;;;;;;5035086;28;20044;-79
2021/05/21 11:59:21;;;;;;;15.38;4.18;;;17.40;55.50;;;;;;5073205;28;20043;-79
2021/05/21 12:02:02;;;;;;;22.27;5.47;;;17.30;56.60;;;;;;5070032;28;20071;-78
2021/05/21 12:04:32;;;;;;;20.30;5.10;;;17.10;57.60;;;;;;5070614;28;20067;-78
2021/05/21 12:06:58;;;;;;;14.68;3.60;;;16.90;58.80;;;;;;5055923;28;20061;-77
2021/05/21 12:09:27;;;;;;;11.68;4.40;;;16.70;59.50;;;;;;5043827;28;20115;-79
2021/05/21 12:11:59;;;;;;;18.10;3.95;;;16.70;60.70;;;;;;5030296;28;20045;-80
2021/05/21 12:14:27;;;;;;;15.10;4.30;;;16.90;61.50;;;;;;5025719;28;20124;-78
2021/05/21 12:16:54;;;;;;;11.68;4.43;;;17.10;62.00;;;;;;5034914;28;20053;-81
2021/05/21 12:19:21;;;;;;;12.27;3.78;;;17.40;62.30;;;;;;5027591;28;20037;-79
2021/05/21 12:21:52;;;;;;;12.23;4.60;;;17.70;62.60;;;;;;5061904;28;20059;-79
2021/05/21 12:24:25;;;;;;;11.15;3.45;;;18.00;62.40;;;;;;5033481;28;20032;-79
2021/05/21 12:26:53;;;;;;;11.63;4.00;;;18.20;61.80;;;;;;5048991;28;20456;-80
2021/05/21 12:29:20;;;;;;;13.88;4.45;;;18.40;61.60;;;;;;5065300;28;20049;-79
2021/05/21 12:31:57;;;;;;;12.02;4.45;;;18.40;61.10;;;;;;5039987;28;20500;-78
2021/05/21 12:34:25;;;;;;;13.75;4.35;;;18.30;60.40;;;;;;5079448;28;20067;-77
2021/05/21 12:37:01;;;;;;;11.70;4.90;;;18.20;60.00;;;;;;5047047;28;20041;-78
2021/05/21 12:39:40;;;;;;;9.80;5.03;;;18.10;60.00;;;;;;5075970;28;20033;-79
2021/05/21 12:42:14;;;;;;;13.70;4.78;;;18.20;59.60;;;;;;5063682;28;20457;-84
2021/05/21 12:44:44;;;;;;;15.93;4.80;;;18.10;59.20;;;;;;5049348;28;20036;-84
2021/05/21 12:47:10;;;;;;;10.50;4.82;;;18.00;59.20;;;;;;5043444;28;20048;-78